الصفحة الرئيسية
METAR-TAF:

METAR-TAF

مطار :

مطار جيبوتي الدولي

جيبوتي, جيبوتي

دائرة عرض: 11-33N, خط طول: 043-10E, ارتفاع: 49 متر

مراقبة الطقس الحالي

تاريخ ووقت الإصدار 42 دقيقة قبل الساعة 07:00UTC
ريح 9 عقدة من الشرق/الجنوب الشرقي
درجة الحرارة 31°درجة مئوية
الرطوبة 71%
ضغط 1015 hPa
الرؤية 10 كم أو أكثر
غيوم مفككة على ارتفاع 2300 قدم

METAR: HDAM 150700Z 12009KT 9999 BKN023 31/25 Q1015

زمن: 10:42 (07:42 UTC)

توقعات

تاريخ ووقت الإصدار 2ساعات و 42 دقيقة قبل الساعة 05:00UTC
التوقعات صالحة من15 الساعة 06 UTC إلى 16 الساعة 06 UTC
ريح 10 عقدة من الشرق تتزايد حتى 15 عقدة
الرؤية 10 كم أو أكثر
غيوم متفرقة على ارتفاع 2300 قدم
غيوم متفرقة على ارتفاع 3000 قدم
أصبح
من 15 الساعة 15 UTC إلى 15 الساعة 18 UTC
ريح 5 عقدةمن اتجاهات متغيرة
غيوم متفرقة على ارتفاع 2000 قدم
أصبح
من 16 الساعة 00 UTC إلى 16 الساعة 06 UTC
ريح 10 عقدة من الشرق
غيوم متفرقة على ارتفاع 2000 قدم
غيوم متفرقة على ارتفاع 3000 قدم
زخات من الأمطار الخفيفة

TAF: HDAM 150500Z 1506/1606 08010G15KT 9999 SCT023 SCT030 BECMG 1515/1518 VRB05KT SCT020 BECMG 1600/1606 10010KT -SHRA SCT020 SCT030

أرصاد الطقس والتوقعات من أكثر من 4000 مطار (تقارير الطقس للمطار METAR والتنبؤ بالطقس بالمطارTAF).

المحطات المتاحة هي النقط الصفراء والحمراء على الخريطة.

حرك المؤشر فوق النقطة لمعرفة اسم المحطة.

ثم انقر لمعرفة أرصاد وتوقعات الطقس.

لتغيير الخارطة: اضغط على الأزرار الخضراء مع رمز الصليب الأسود للتكبير. على الزر الأخضر مع شرطة للتصغير، أو على الأسهم الخضراء للخرائط المجاورة.


METAR-TAF: